createdAt,value
2023-03-01T00:03:28.753Z,-4
2023-03-01T00:22:45.108Z,-3.9
2023-03-01T00:42:02.444Z,-3.7
2023-03-01T01:01:20.304Z,-3.8
2023-03-01T01:20:36.427Z,-4.1
2023-03-01T01:39:52.244Z,-4.2
2023-03-01T01:59:10.445Z,-4
2023-03-01T02:18:27.646Z,-4.2
2023-03-01T02:37:42.782Z,-4.4
2023-03-01T02:56:58.069Z,-4.3
2023-03-01T03:16:17.614Z,-4.3
2023-03-01T03:35:34.782Z,-4.5
2023-03-01T03:54:51.099Z,-4.2
2023-03-01T04:14:07.971Z,-4.3
2023-03-01T04:33:23.812Z,-4.4
2023-03-01T04:52:42.129Z,-4.3
2023-03-01T05:11:59.687Z,-4.4
2023-03-01T05:31:17.765Z,-4.4
2023-03-01T05:50:34.313Z,-4.5
2023-03-01T06:09:51.579Z,-4.3
2023-03-01T06:29:04.788Z,-4.4
2023-03-01T06:48:23.494Z,-4.2
2023-03-01T07:07:42.526Z,-4.5
2023-03-01T07:26:59.812Z,-4
2023-03-01T07:46:18.991Z,-3.9
2023-03-01T08:05:38.570Z,-3.4
2023-03-01T08:24:58.867Z,-2.6
2023-03-01T08:44:53.800Z,-3.4
2023-03-01T09:04:03.944Z,-2.8
2023-03-01T09:23:20.212Z,-2.8
2023-03-01T09:42:42.364Z,-2.5
2023-03-01T10:02:16.596Z,-2.4
2023-03-01T10:21:20.625Z,-2.6
2023-03-01T10:40:37.465Z,-2.8
2023-03-01T10:59:51.142Z,-2.9
2023-03-01T11:19:10.408Z,-3
2023-03-01T11:38:29.981Z,-3.1
2023-03-01T11:57:48.923Z,-3.5
2023-03-01T12:17:09.947Z,-3.7
2023-03-01T12:36:27.702Z,-3.7
2023-03-01T12:55:47.313Z,-4.1
2023-03-01T13:15:09.705Z,-4.5
2023-03-01T13:34:27.042Z,-5.4
2023-03-01T13:53:46.883Z,-3.5
2023-03-01T14:13:16.956Z,-3.4
2023-03-01T14:32:25.676Z,-3.2
2023-03-01T14:51:43.092Z,-3.1
2023-03-01T15:11:02.186Z,-3.1
2023-03-01T15:30:10.005Z,-3.6
2023-03-01T15:49:27.552Z,-4.3
2023-03-01T16:08:43.013Z,-4.1
2023-03-01T16:27:58.559Z,-3.6
2023-03-01T16:47:14.523Z,-4.3
2023-03-01T17:06:31.869Z,-4.1
2023-03-01T17:25:47.290Z,-4.2
2023-03-01T17:45:03.914Z,-4.9
2023-03-01T18:04:20.720Z,-5.3
2023-03-01T18:23:37.670Z,-4.4
2023-03-01T18:42:53.801Z,-4.1
2023-03-01T19:02:09.297Z,-4.8
2023-03-01T19:21:25.017Z,-4.7
2023-03-01T19:40:58.420Z,-4.4
2023-03-01T20:00:09.010Z,-4
2023-03-01T20:19:20.045Z,-3.9
2023-03-01T20:38:37.057Z,-3.8
2023-03-01T20:57:55.104Z,-4.5
2023-03-01T21:17:14.240Z,-4.7
2023-03-01T21:36:31.996Z,-4.7
2023-03-01T21:55:52.257Z,-4.1
2023-03-01T22:15:16.577Z,-4.2
2023-03-01T22:34:22.933Z,-4.2
2023-03-01T22:53:37.177Z,-4
2023-03-01T23:12:50.893Z,-4.5
2023-03-01T23:32:07.339Z,-4.2
2023-03-01T23:51:24.319Z,-4
